This is the latest recevied weather packets stored in our database for station/object WD7OO. If no packets are shown the sender has not sent any weather packets the latest 1 day(s).
| Time | Temp. | Humidity | Pressure | Rain* | Wind** | Luminosity | Snow |
|---|---|---|---|---|---|---|---|
| 1778030543 | 9.44° C | 75% | 1009.4 hPa | 0 mm | - | 0 W/m² | - |
| 1778030240 | 9.44° C | 76% | 1009.2 hPa | 0 mm | - | 0 W/m² | - |
| 1778029936 | 9.44° C | 77% | 1009.4 hPa | 0 mm | - | 0 W/m² | - |
| 1778029029 | 9.44° C | 75% | 1009.2 hPa | 0 mm | - | 0 W/m² | - |
| 1778028421 | 10° C | 72% | 1009.1 hPa | 0 mm | - | 0 W/m² | - |
| 1778027815 | 10° C | 69% | 1008.9 hPa | 0 mm | - | 1 W/m² | - |
| 1778027207 | 10° C | 70% | 1008.8 hPa | 0 mm | - | 3 W/m² | - |
| 1778026903 | 10.56° C | 68% | 1009 hPa | 0 mm | - | 5 W/m² | - |
| 1778026297 | 10.56° C | 67% | 1008.9 hPa | 0 mm | - | 11 W/m² | - |
| 1778025994 | 10.56° C | 62% | 1008.8 hPa | 0 mm | - | 14 W/m² | - |
| 1778025691 | 10.56° C | 58% | 1008.9 hPa | 0 mm | - | 22 W/m² | - |
| 1778020846 | 10.56° C | 56% | 1009.6 hPa | 0 mm | - | 48 W/m² | - |
| 1778020543 | 10.56° C | 58% | 1009.5 hPa | 0 mm | - | 43 W/m² | - |
| 1778020239 | 10.56° C | 57% | 1009.4 hPa | 0 mm | - | 36 W/m² | - |
| 1778019329 | 10.56° C | 52% | 1009.4 hPa | 0 mm | - | 41 W/m² | - |
| 1778016301 | 11.11° C | 53% | 1009.6 hPa | 0 mm | - | 117 W/m² | - |
| 1778015695 | 11.11° C | 54% | 1009.7 hPa | 0 mm | - | 109 W/m² | - |
| 1778015083 | 11.11° C | 52% | 1009.7 hPa | 0 mm | - | 117 W/m² | - |
| 1778014478 | 11.11° C | 54% | 1009.4 hPa | 0 mm | - | 121 W/m² | - |
| 1778012962 | 11.67° C | 52% | 1009.4 hPa | 0 mm | - | 158 W/m² | - |
| 1778008720 | 13.33° C | 51% | 1009.8 hPa | 0 mm | - | 375 W/m² | - |
| 1778007203 | 13.33° C | 56% | 1009.6 hPa | 0 mm | - | 467 W/m² | - |
| 1778005687 | 12.78° C | 60% | 1009.5 hPa | 0 mm | - | 390 W/m² | - |
| 1778004474 | 13.33° C | 62% | 1009.2 hPa | 0 mm | - | 440 W/m² | - |
| 1778003867 | 12.78° C | 60% | 1009.2 hPa | 0 mm | - | 557 W/m² | - |
* Rain latest hour (hover to see other rain measurements)
** Current wind speed in m/s (hover to see current wind gust speed)